Time;durP1;ratioP1;P1;durP2;ratioP2;P2;SDS_P1;SDS_P2;PMS_P1;PMS_P2;Temp;Humidity;BMP_temperature;BMP_pressure;BME280_temperature;BME280_humidity;BME280_pressure;Samples;Min_cycle;Max_cycle;Signal;HPM_P1;HPM_P2
2023/08/01 00:00:00;;;;;;;3.30;3.10;;;19.40;99.90;;;;;;5034084;28;20204;-76
2023/08/01 00:02:26;;;;;;;3.47;3.10;;;19.40;99.90;;;;;;5016227;28;20203;-77
2023/08/01 00:04:52;;;;;;;4.17;3.20;;;19.40;99.90;;;;;;5034847;28;20566;-76
2023/08/01 00:07:18;;;;;;;3.43;3.23;;;19.40;99.90;;;;;;5016564;28;20181;-76
2023/08/01 00:09:44;;;;;;;3.03;2.83;;;19.40;99.90;;;;;;5016288;28;20259;-75
2023/08/01 00:12:09;;;;;;;3.10;2.90;;;19.40;99.90;;;;;;5034421;28;20303;-79
2023/08/01 00:14:36;;;;;;;3.53;3.33;;;19.40;99.90;;;;;;5034369;28;20183;-76
2023/08/01 00:17:03;;;;;;;3.10;2.90;;;19.30;99.90;;;;;;5033252;28;20185;-76
2023/08/01 00:19:29;;;;;;;4.03;3.23;;;19.40;99.90;;;;;;5033080;28;20256;-78
2023/08/01 00:21:56;;;;;;;3.10;2.90;;;19.70;99.90;;;;;;5016572;28;20172;-79
2023/08/01 00:24:23;;;;;;;2.93;2.73;;;19.40;99.90;;;;;;5014454;28;20632;-75
2023/08/01 00:26:49;;;;;;;3.80;3.50;;;19.40;99.90;;;;;;5034329;28;20734;-77
2023/08/01 00:29:15;;;;;;;3.33;3.13;;;19.30;99.90;;;;;;5020051;28;20212;-79
2023/08/01 00:31:41;;;;;;;3.10;3.00;;;19.30;99.90;;;;;;5034522;28;20661;-76
2023/08/01 00:34:07;;;;;;;3.23;3.07;;;19.30;99.90;;;;;;5037452;28;20176;-78
2023/08/01 00:36:33;;;;;;;3.33;3.13;;;19.20;99.90;;;;;;5052947;28;20172;-76
2023/08/01 00:38:59;;;;;;;3.47;3.23;;;19.20;99.90;;;;;;5037343;28;20206;-76
2023/08/01 00:41:24;;;;;;;3.20;2.90;;;19.20;99.90;;;;;;5022196;28;20172;-77
2023/08/01 00:43:51;;;;;;;3.00;2.80;;;19.20;99.90;;;;;;5048455;28;20176;-76
2023/08/01 00:46:18;;;;;;;3.10;2.93;;;19.10;99.90;;;;;;5046840;28;20179;-78
2023/08/01 00:48:44;;;;;;;3.50;3.10;;;19.10;99.90;;;;;;5046910;28;20219;-77
2023/08/01 00:51:12;;;;;;;3.57;3.27;;;19.10;99.90;;;;;;5016379;28;20204;-77
2023/08/01 00:53:38;;;;;;;2.90;2.80;;;19.10;99.90;;;;;;5034180;28;20242;-76
2023/08/01 00:56:04;;;;;;;3.93;3.00;;;19.10;99.90;;;;;;5033878;28;20536;-77
2023/08/01 00:58:30;;;;;;;3.20;3.00;;;19.10;99.90;;;;;;5033416;28;20259;-77
2023/08/01 01:00:57;;;;;;;3.47;3.17;;;19.10;99.90;;;;;;5034462;28;20651;-76
2023/08/01 01:03:23;;;;;;;3.93;3.63;;;19.10;99.90;;;;;;5033139;28;20187;-77
2023/08/01 01:05:57;;;;;;;3.60;3.17;;;19.10;99.90;;;;;;5040577;28;20186;-77
2023/08/01 01:08:23;;;;;;;3.50;3.20;;;19.10;99.90;;;;;;5036935;28;20205;-77
2023/08/01 01:10:48;;;;;;;3.80;3.50;;;19.00;99.90;;;;;;5037413;28;20279;-75
2023/08/01 01:13:14;;;;;;;3.40;3.10;;;19.00;99.90;;;;;;5037102;28;20632;-77
2023/08/01 01:15:40;;;;;;;3.30;3.10;;;19.00;99.90;;;;;;5037306;28;20165;-78
2023/08/01 01:18:06;;;;;;;3.50;3.30;;;19.00;99.90;;;;;;5018487;28;20590;-75
2023/08/01 01:20:36;;;;;;;3.27;3.03;;;19.00;99.90;;;;;;5019685;28;20242;-76
2023/08/01 01:23:05;;;;;;;3.70;3.13;;;19.00;99.90;;;;;;5039859;28;20203;-76
2023/08/01 01:25:32;;;;;;;3.37;3.17;;;19.00;99.90;;;;;;5041779;28;20253;-78
2023/08/01 01:28:00;;;;;;;3.10;2.90;;;19.10;99.90;;;;;;5040454;28;20280;-76
2023/08/01 01:30:28;;;;;;;3.10;2.90;;;19.10;99.90;;;;;;5037678;28;20230;-77
2023/08/01 01:32:54;;;;;;;3.40;3.00;;;19.10;99.90;;;;;;5037500;28;20251;-76
2023/08/01 01:35:20;;;;;;;3.13;3.00;;;19.10;99.90;;;;;;5036798;28;20257;-77
2023/08/01 01:37:46;;;;;;;3.03;2.87;;;19.10;99.90;;;;;;5039724;28;20203;-76
2023/08/01 01:40:12;;;;;;;3.43;3.23;;;19.10;99.90;;;;;;5045119;28;20240;-76
2023/08/01 01:42:38;;;;;;;4.57;4.27;;;19.10;99.90;;;;;;5020515;28;20176;-78
2023/08/01 01:45:04;;;;;;;3.50;3.20;;;19.10;99.90;;;;;;5036181;28;20239;-75
2023/08/01 01:47:30;;;;;;;3.83;3.00;;;19.10;99.90;;;;;;5037014;28;20177;-78
2023/08/01 01:49:55;;;;;;;3.57;3.07;;;19.00;99.90;;;;;;5018941;28;20227;-75
2023/08/01 01:52:21;;;;;;;5.23;3.20;;;19.00;99.90;;;;;;5036475;28;20697;-76
2023/08/01 01:54:47;;;;;;;3.20;3.00;;;18.90;99.90;;;;;;5036414;28;20253;-76
2023/08/01 01:57:13;;;;;;;3.20;2.97;;;18.90;99.90;;;;;;5036688;28;20695;-76
2023/08/01 01:59:38;;;;;;;2.87;2.67;;;18.90;99.90;;;;;;5036248;28;20173;-81
2023/08/01 02:02:04;;;;;;;2.83;2.73;;;18.90;99.90;;;;;;5036546;28;20207;-76
2023/08/01 02:04:30;;;;;;;3.90;3.03;;;18.90;99.90;;;;;;5018219;28;20739;-77
2023/08/01 02:06:56;;;;;;;2.80;2.70;;;18.80;99.90;;;;;;5036654;28;20173;-76
2023/08/01 02:09:22;;;;;;;3.10;2.90;;;18.80;99.90;;;;;;5036680;28;20215;-77
2023/08/01 02:11:48;;;;;;;3.40;3.00;;;18.70;99.90;;;;;;5038292;28;20214;-77
2023/08/01 02:14:14;;;;;;;3.10;2.90;;;18.80;99.90;;;;;;5053879;28;20207;-79
2023/08/01 02:16:40;;;;;;;5.10;3.13;;;18.80;99.90;;;;;;5037247;28;20176;-76
2023/08/01 02:19:06;;;;;;;3.30;3.03;;;18.70;99.90;;;;;;5038102;28;20183;-76
2023/08/01 02:21:31;;;;;;;5.83;3.10;;;18.60;99.90;;;;;;5040154;28;20203;-75
2023/08/01 02:23:57;;;;;;;3.50;3.23;;;18.60;99.90;;;;;;5054309;28;20195;-77
2023/08/01 02:26:24;;;;;;;3.60;3.30;;;18.60;99.90;;;;;;5037596;28;20184;-75
2023/08/01 02:28:50;;;;;;;5.23;3.47;;;18.50;99.90;;;;;;5037729;28;20215;-77
2023/08/01 02:31:17;;;;;;;3.70;3.50;;;18.50;99.90;;;;;;5035841;28;20169;-77
2023/08/01 02:33:42;;;;;;;3.57;3.30;;;18.50;99.90;;;;;;5035743;28;20180;-75
2023/08/01 02:36:08;;;;;;;4.53;3.70;;;18.50;99.90;;;;;;5035205;28;20539;-77
2023/08/01 02:38:34;;;;;;;3.43;3.23;;;18.50;99.90;;;;;;5035886;28;20194;-77
2023/08/01 02:41:00;;;;;;;3.40;3.20;;;18.60;99.90;;;;;;5035610;28;20327;-76
2023/08/01 02:43:25;;;;;;;3.40;3.10;;;18.60;99.90;;;;;;5041961;28;20180;-77
2023/08/01 02:45:51;;;;;;;4.27;3.33;;;18.50;99.90;;;;;;5040275;28;20231;-75
2023/08/01 02:48:17;;;;;;;3.40;3.20;;;18.50;99.90;;;;;;5038293;28;20254;-75
2023/08/01 02:50:43;;;;;;;3.80;3.57;;;18.50;99.90;;;;;;5038279;28;20168;-75
2023/08/01 02:53:08;;;;;;;3.57;3.37;;;18.50;99.90;;;;;;5037966;28;20195;-77
2023/08/01 02:55:34;;;;;;;3.67;3.47;;;18.60;99.90;;;;;;5037819;28;20172;-76
2023/08/01 02:58:00;;;;;;;3.63;3.43;;;18.50;99.90;;;;;;5036983;28;20187;-76
2023/08/01 03:00:26;;;;;;;3.53;3.33;;;18.50;99.90;;;;;;5037368;28;20639;-76
2023/08/01 03:02:52;;;;;;;2.93;2.67;;;18.50;99.90;;;;;;5037931;28;20587;-76
2023/08/01 03:05:17;;;;;;;4.30;3.00;;;18.50;99.90;;;;;;5038227;28;20181;-76
2023/08/01 03:07:43;;;;;;;3.63;3.43;;;18.60;99.90;;;;;;5036469;28;20254;-78
2023/08/01 03:10:13;;;;;;;3.00;2.80;;;18.60;99.90;;;;;;5036793;28;20176;-76
2023/08/01 03:12:39;;;;;;;3.30;3.10;;;18.50;99.90;;;;;;5037554;28;20633;-75
2023/08/01 03:15:08;;;;;;;3.00;2.80;;;18.40;99.90;;;;;;5019254;28;20208;-76
2023/08/01 03:17:34;;;;;;;3.40;3.20;;;18.40;99.90;;;;;;5037862;28;20175;-75
2023/08/01 03:20:00;;;;;;;3.30;3.10;;;18.40;99.90;;;;;;5038208;28;20259;-77
2023/08/01 03:22:26;;;;;;;3.30;3.00;;;18.40;99.90;;;;;;5037174;28;20204;-76
2023/08/01 03:24:51;;;;;;;3.63;3.20;;;18.50;99.90;;;;;;5037749;28;20216;-75
2023/08/01 03:27:17;;;;;;;3.10;2.93;;;18.30;99.90;;;;;;5036454;28;20176;-77
2023/08/01 03:29:43;;;;;;;3.13;2.90;;;18.30;99.90;;;;;;5019292;28;20208;-76
2023/08/01 03:32:09;;;;;;;4.23;2.90;;;18.20;99.90;;;;;;5018055;28;20230;-77
2023/08/01 03:34:35;;;;;;;3.17;2.97;;;18.20;99.90;;;;;;5036520;28;20177;-77
2023/08/01 03:37:00;;;;;;;3.60;3.30;;;18.10;99.90;;;;;;5036108;28;20212;-76
2023/08/01 03:39:26;;;;;;;3.27;3.07;;;18.10;99.90;;;;;;5037358;28;20180;-77
2023/08/01 03:41:52;;;;;;;3.13;2.93;;;18.00;99.90;;;;;;5037222;28;20188;-77
2023/08/01 03:44:18;;;;;;;2.90;2.77;;;17.90;99.90;;;;;;5035900;28;20219;-77
2023/08/01 03:46:43;;;;;;;3.70;3.40;;;17.90;99.90;;;;;;5042918;28;20636;-77
2023/08/01 03:49:10;;;;;;;5.33;3.93;;;17.90;99.90;;;;;;5039469;28;20568;-77
2023/08/01 03:51:36;;;;;;;4.73;3.40;;;18.00;99.90;;;;;;5053084;28;20174;-77
2023/08/01 03:54:01;;;;;;;3.40;3.20;;;18.00;99.90;;;;;;5043159;28;20209;-76
2023/08/01 03:56:27;;;;;;;4.23;3.60;;;18.10;99.90;;;;;;5021447;28;20234;-76
2023/08/01 03:58:53;;;;;;;3.83;3.60;;;18.10;99.90;;;;;;5036936;28;20180;-76
2023/08/01 04:01:19;;;;;;;3.93;3.57;;;18.20;99.90;;;;;;5029543;28;20185;-81
2023/08/01 04:03:45;;;;;;;3.90;3.50;;;18.10;99.90;;;;;;5049372;28;20176;-80
2023/08/01 04:06:15;;;;;;;3.67;3.40;;;18.10;99.90;;;;;;5053452;28;20244;-76
2023/08/01 04:08:41;;;;;;;4.20;3.63;;;18.20;99.90;;;;;;5042857;28;20563;-76
2023/08/01 04:11:06;;;;;;;5.43;3.60;;;18.20;99.90;;;;;;5019147;28;20191;-75
2023/08/01 04:13:32;;;;;;;5.17;4.10;;;18.10;99.90;;;;;;5036400;28;20180;-76
2023/08/01 04:15:58;;;;;;;4.23;3.93;;;18.20;99.90;;;;;;5035626;28;20185;-75
2023/08/01 04:18:24;;;;;;;3.70;3.40;;;18.20;99.90;;;;;;5034347;28;20185;-76
2023/08/01 04:20:49;;;;;;;3.90;3.60;;;18.20;99.90;;;;;;5038960;28;20560;-77
2023/08/01 04:23:15;;;;;;;3.63;3.43;;;18.30;99.90;;;;;;5038024;28;20539;-75
2023/08/01 04:25:42;;;;;;;3.67;3.37;;;18.40;99.90;;;;;;5036334;28;20172;-79
2023/08/01 04:28:07;;;;;;;4.77;4.37;;;18.40;99.90;;;;;;5017675;28;20218;-76
2023/08/01 04:30:35;;;;;;;3.60;3.40;;;18.30;99.90;;;;;;5017519;28;20172;-77
2023/08/01 04:33:01;;;;;;;4.90;4.40;;;18.30;99.90;;;;;;5035060;28;20658;-76
2023/08/01 04:35:26;;;;;;;7.23;6.10;;;18.30;99.90;;;;;;5017036;28;20188;-79
2023/08/01 04:37:52;;;;;;;8.57;6.50;;;18.40;99.90;;;;;;5035204;28;20171;-77
2023/08/01 04:40:18;;;;;;;7.07;5.13;;;18.50;99.90;;;;;;5018280;28;20551;-74
2023/08/01 04:42:43;;;;;;;4.60;4.20;;;18.60;99.90;;;;;;5017260;28;20402;-75
2023/08/01 04:45:09;;;;;;;4.90;3.60;;;18.60;99.90;;;;;;5035757;28;20239;-78
2023/08/01 04:47:35;;;;;;;4.03;3.10;;;18.60;99.90;;;;;;5035748;28;20263;-75
2023/08/01 04:50:03;;;;;;;3.40;3.10;;;18.60;99.90;;;;;;5016631;28;20300;-75
2023/08/01 04:52:28;;;;;;;4.73;4.37;;;18.80;99.90;;;;;;5035689;28;20187;-75
2023/08/01 04:54:54;;;;;;;3.90;3.30;;;18.90;99.90;;;;;;5035831;28;20186;-77
2023/08/01 04:57:20;;;;;;;3.50;3.20;;;19.00;99.90;;;;;;5037096;28;20524;-77
2023/08/01 04:59:45;;;;;;;3.33;3.13;;;19.00;99.90;;;;;;5017378;28;20220;-78
2023/08/01 05:02:11;;;;;;;3.50;3.30;;;19.20;99.90;;;;;;5019290;28;20188;-76
2023/08/01 05:04:38;;;;;;;3.83;3.50;;;19.40;99.90;;;;;;5036336;28;20172;-76
2023/08/01 05:07:05;;;;;;;3.70;3.43;;;19.40;99.90;;;;;;5034726;28;20234;-76
2023/08/01 05:09:32;;;;;;;3.43;3.23;;;19.50;99.90;;;;;;5037433;28;20709;-76
2023/08/01 05:11:58;;;;;;;4.00;3.77;;;19.60;99.90;;;;;;5034424;28;20195;-76
2023/08/01 05:14:23;;;;;;;3.50;3.20;;;19.70;99.90;;;;;;5035329;28;20640;-75
2023/08/01 05:16:49;;;;;;;3.90;3.60;;;19.80;99.90;;;;;;5035395;28;20897;-78
2023/08/01 05:19:15;;;;;;;3.30;3.10;;;19.80;99.90;;;;;;5036889;28;20594;-77
2023/08/01 05:21:41;;;;;;;4.53;3.43;;;19.80;99.90;;;;;;5036479;28;20632;-78
2023/08/01 05:24:06;;;;;;;3.77;3.47;;;19.90;99.90;;;;;;5022391;28;20181;-77
2023/08/01 05:26:33;;;;;;;3.47;3.27;;;19.90;99.90;;;;;;5055068;28;20169;-78
2023/08/01 05:28:59;;;;;;;3.40;3.20;;;19.90;99.90;;;;;;5055807;28;20188;-76
2023/08/01 05:31:25;;;;;;;4.00;3.40;;;20.00;99.90;;;;;;5043564;28;20215;-78
2023/08/01 05:33:50;;;;;;;5.27;3.20;;;19.90;99.90;;;;;;5036248;28;20200;-77
2023/08/01 05:36:16;;;;;;;3.90;3.60;;;19.60;99.90;;;;;;5035332;28;20176;-77
2023/08/01 05:38:42;;;;;;;3.30;3.10;;;20.00;99.90;;;;;;5039359;28;20172;-78
2023/08/01 05:41:07;;;;;;;3.57;3.27;;;20.10;99.90;;;;;;5051850;28;20204;-75
2023/08/01 05:43:33;;;;;;;5.50;3.40;;;20.20;99.90;;;;;;5054835;28;20164;-78
2023/08/01 05:45:59;;;;;;;3.90;3.60;;;20.40;99.90;;;;;;5055697;28;20250;-76
2023/08/01 05:48:25;;;;;;;3.60;3.20;;;20.60;99.90;;;;;;5040730;28;20211;-75
2023/08/01 05:50:53;;;;;;;3.90;3.20;;;20.70;99.90;;;;;;5039821;28;20196;-75
2023/08/01 05:53:18;;;;;;;4.83;3.40;;;20.80;99.90;;;;;;5037452;28;20176;-77
2023/08/01 05:55:44;;;;;;;3.43;3.23;;;20.90;99.90;;;;;;5043047;28;20181;-76
2023/08/01 05:58:10;;;;;;;3.20;3.03;;;21.00;99.90;;;;;;5021935;28;20237;-78
2023/08/01 06:00:36;;;;;;;4.17;3.80;;;21.20;99.90;;;;;;5039540;28;20172;-76
2023/08/01 06:03:01;;;;;;;3.40;3.10;;;21.20;99.90;;;;;;5040821;28;20183;-75
2023/08/01 06:05:28;;;;;;;3.60;3.30;;;21.30;99.90;;;;;;5040091;28;20180;-78
2023/08/01 06:07:54;;;;;;;3.53;3.33;;;21.20;99.90;;;;;;5039253;28;20219;-77
2023/08/01 06:10:19;;;;;;;3.33;3.10;;;21.10;99.90;;;;;;5040068;28;20180;-75
2023/08/01 06:12:46;;;;;;;3.43;3.23;;;21.20;99.90;;;;;;5039868;28;20555;-75
2023/08/01 06:15:12;;;;;;;3.50;3.20;;;21.10;99.90;;;;;;5040022;28;20168;-75
2023/08/01 06:17:38;;;;;;;5.03;3.40;;;21.30;99.90;;;;;;5039733;28;20641;-77
2023/08/01 06:20:05;;;;;;;3.40;3.20;;;21.40;99.90;;;;;;5039284;28;20172;-75
2023/08/01 06:22:31;;;;;;;3.57;3.30;;;21.40;99.90;;;;;;5020795;28;20176;-77
2023/08/01 06:24:56;;;;;;;5.70;3.70;;;21.50;99.90;;;;;;5021488;28;20177;-77
2023/08/01 06:27:22;;;;;;;3.83;3.53;;;21.50;99.90;;;;;;5021095;28;20191;-76
2023/08/01 06:29:48;;;;;;;4.43;3.27;;;21.60;99.90;;;;;;5039190;28;20238;-76
2023/08/01 06:32:14;;;;;;;3.67;3.40;;;21.70;99.90;;;;;;5039361;28;20180;-76
2023/08/01 06:34:39;;;;;;;4.17;3.10;;;21.80;99.90;;;;;;5039569;28;20298;-76
2023/08/01 06:37:05;;;;;;;3.30;3.00;;;22.10;99.90;;;;;;5038750;28;20172;-76
2023/08/01 06:39:31;;;;;;;3.73;3.40;;;22.20;99.90;;;;;;5039782;28;20347;-75
2023/08/01 06:41:57;;;;;;;3.80;3.47;;;22.20;99.90;;;;;;5040018;28;20176;-75
2023/08/01 06:44:22;;;;;;;4.60;3.60;;;22.20;99.90;;;;;;5039772;28;20224;-76
2023/08/01 06:46:48;;;;;;;4.03;3.70;;;22.40;99.90;;;;;;5039102;28;20227;-75
2023/08/01 06:49:14;;;;;;;4.07;3.50;;;22.20;99.90;;;;;;5039553;28;20305;-77
2023/08/01 06:51:41;;;;;;;3.77;3.47;;;22.40;99.90;;;;;;5038467;28;20628;-80
2023/08/01 06:54:07;;;;;;;3.60;3.33;;;22.40;99.90;;;;;;5038096;28;20596;-75
2023/08/01 06:56:33;;;;;;;3.70;3.40;;;22.20;99.90;;;;;;5039216;28;20165;-76
2023/08/01 06:58:59;;;;;;;3.87;3.57;;;22.20;99.90;;;;;;5040336;28;20580;-76
2023/08/01 07:01:25;;;;;;;3.50;3.30;;;22.10;99.90;;;;;;5038798;28;20176;-75
2023/08/01 07:03:53;;;;;;;4.67;3.67;;;22.10;99.90;;;;;;5037251;28;20223;-76
2023/08/01 07:06:19;;;;;;;4.07;3.40;;;22.00;99.90;;;;;;5053084;28;20180;-76
2023/08/01 07:08:45;;;;;;;3.80;3.50;;;22.20;99.90;;;;;;5037959;28;20212;-76
2023/08/01 07:11:11;;;;;;;4.60;3.80;;;22.30;99.90;;;;;;5039632;28;20172;-76
2023/08/01 07:13:36;;;;;;;4.20;3.80;;;22.20;99.90;;;;;;5039532;28;20176;-75
2023/08/01 07:16:02;;;;;;;4.17;3.70;;;22.20;99.90;;;;;;5036531;28;20287;-78
2023/08/01 07:18:28;;;;;;;4.10;3.80;;;22.20;99.90;;;;;;5052884;28;20176;-76
2023/08/01 07:21:01;;;;;;;3.63;3.37;;;22.40;99.90;;;;;;5037684;28;20180;-76
2023/08/01 07:23:27;;;;;;;3.80;3.50;;;22.60;99.90;;;;;;5044501;28;20168;-76
2023/08/01 07:25:53;;;;;;;4.80;3.73;;;22.80;99.90;;;;;;5056824;28;20196;-76
2023/08/01 07:28:19;;;;;;;3.60;3.30;;;23.10;99.90;;;;;;5050891;28;20200;-76
2023/08/01 07:30:44;;;;;;;6.17;3.60;;;23.30;99.90;;;;;;5040264;28;20236;-75
2023/08/01 07:33:10;;;;;;;3.53;3.22;;;23.40;99.90;;;;;;5038152;28;20227;-76
2023/08/01 07:35:36;;;;;;;3.80;3.10;;;23.40;99.90;;;;;;5038218;28;20172;-76
2023/08/01 07:38:02;;;;;;;4.20;3.80;;;23.50;99.90;;;;;;5037967;28;20180;-77
2023/08/01 07:40:27;;;;;;;3.67;3.38;;;23.60;99.90;;;;;;5036931;28;20176;-76
2023/08/01 07:42:53;;;;;;;3.50;3.30;;;23.60;99.90;;;;;;5037794;28;20211;-75
2023/08/01 07:45:20;;;;;;;4.47;3.30;;;23.60;99.90;;;;;;5037860;28;20231;-78
2023/08/01 07:47:46;;;;;;;4.07;3.60;;;23.50;99.90;;;;;;5021272;28;20191;-75
2023/08/01 07:50:12;;;;;;;3.50;3.25;;;23.40;99.90;;;;;;5041245;28;20216;-76
2023/08/01 07:52:38;;;;;;;12.50;3.90;;;23.50;99.90;;;;;;5041993;28;20179;-75
2023/08/01 07:55:04;;;;;;;2.88;2.78;;;23.40;99.90;;;;;;5039267;28;20188;-77
2023/08/01 07:57:30;;;;;;;3.03;2.83;;;23.30;99.90;;;;;;5036724;28;20168;-76
2023/08/01 07:59:56;;;;;;;3.30;3.08;;;23.30;99.90;;;;;;5036715;28;20187;-77
2023/08/01 08:02:22;;;;;;;3.17;2.92;;;23.40;99.90;;;;;;5024498;28;20195;-75
2023/08/01 08:04:48;;;;;;;3.45;3.25;;;23.60;99.90;;;;;;5038204;28;20183;-76
2023/08/01 08:07:14;;;;;;;3.10;2.90;;;23.70;99.90;;;;;;5036589;28;20663;-76
2023/08/01 08:09:39;;;;;;;4.10;3.00;;;23.80;99.90;;;;;;5036315;28;20220;-77
2023/08/01 08:12:06;;;;;;;3.30;3.10;;;23.90;99.90;;;;;;5036387;28;20631;-76
2023/08/01 08:14:31;;;;;;;3.35;3.15;;;24.00;99.90;;;;;;5036897;28;20176;-77
2023/08/01 08:16:57;;;;;;;3.20;3.05;;;24.00;99.90;;;;;;5036825;28;20180;-76
2023/08/01 08:19:25;;;;;;;3.38;3.17;;;24.00;99.90;;;;;;5034855;28;20168;-77
2023/08/01 08:21:51;;;;;;;3.78;3.47;;;23.90;99.90;;;;;;5018401;28;20172;-76
2023/08/01 08:24:16;;;;;;;3.30;3.03;;;23.80;99.90;;;;;;5035970;28;20536;-78
2023/08/01 08:26:42;;;;;;;3.08;2.97;;;23.70;99.90;;;;;;5035929;28;20187;-77
2023/08/01 08:29:08;;;;;;;3.00;2.85;;;23.50;99.90;;;;;;5035492;28;20258;-76
2023/08/01 08:31:34;;;;;;;2.80;2.67;;;23.50;99.90;;;;;;5035538;28;20173;-76
2023/08/01 08:33:59;;;;;;;4.53;2.92;;;23.50;99.90;;;;;;5035008;28;20176;-77
2023/08/01 08:36:25;;;;;;;3.42;3.22;;;23.50;99.90;;;;;;5036038;28;20232;-77
2023/08/01 08:38:51;;;;;;;3.10;3.00;;;23.50;99.90;;;;;;5036103;28;20172;-76
2023/08/01 08:41:23;;;;;;;3.42;3.13;;;23.60;99.90;;;;;;5035823;28;20164;-78
2023/08/01 08:43:51;;;;;;;3.22;3.03;;;23.70;99.90;;;;;;5045743;28;20156;-78
2023/08/01 08:46:18;;;;;;;3.42;3.22;;;23.80;99.90;;;;;;5037909;28;20165;-77
2023/08/01 08:48:46;;;;;;;3.60;3.40;;;23.80;99.90;;;;;;5036203;28;20212;-75
2023/08/01 08:51:12;;;;;;;3.47;3.17;;;23.90;99.90;;;;;;5037998;28;20600;-76
2023/08/01 08:53:40;;;;;;;3.42;3.08;;;23.90;99.90;;;;;;5039940;28;20230;-77
2023/08/01 08:56:09;;;;;;;3.47;3.17;;;23.90;99.90;;;;;;5044586;28;20256;-75
2023/08/01 08:58:38;;;;;;;3.45;3.25;;;24.00;99.90;;;;;;5036218;28;20179;-76
2023/08/01 09:01:06;;;;;;;2.80;2.65;;;24.20;99.90;;;;;;5020739;28;20277;-78
2023/08/01 09:03:32;;;;;;;3.50;3.17;;;24.30;99.90;;;;;;5037588;28;20213;-77
2023/08/01 09:06:06;;;;;;;3.55;3.17;;;24.40;99.90;;;;;;5055076;28;20165;-76
2023/08/01 09:08:35;;;;;;;3.42;3.22;;;24.60;99.90;;;;;;5047476;28;20208;-77
2023/08/01 09:11:01;;;;;;;3.50;3.30;;;24.60;99.90;;;;;;5037821;28;20164;-77
2023/08/01 09:13:27;;;;;;;3.55;3.30;;;24.80;99.90;;;;;;5036524;28;20583;-78
2023/08/01 09:15:53;;;;;;;3.55;3.38;;;24.90;99.90;;;;;;5035169;28;20168;-77
2023/08/01 09:18:18;;;;;;;3.08;2.88;;;24.90;99.90;;;;;;5035861;28;20177;-77
2023/08/01 09:20:47;;;;;;;3.55;3.33;;;25.10;99.90;;;;;;5035258;28;20180;-76
2023/08/01 09:23:13;;;;;;;4.10;3.50;;;25.30;99.90;;;;;;5036680;28;20181;-76
2023/08/01 09:25:41;;;;;;;3.97;3.67;;;25.50;99.90;;;;;;5036751;28;20190;-76
2023/08/01 09:28:23;;;;;;;3.60;3.40;;;25.60;99.90;;;;;;5036616;28;20527;-76
2023/08/01 09:30:51;;;;;;;3.50;3.30;;;25.80;99.90;;;;;;5023118;28;20515;-77
2023/08/01 09:33:18;;;;;;;3.25;3.05;;;25.70;99.90;;;;;;5043838;28;20563;-77
2023/08/01 09:35:45;;;;;;;3.42;3.10;;;25.70;99.90;;;;;;5038800;28;20169;-78
2023/08/01 09:38:15;;;;;;;3.55;3.35;;;25.60;99.90;;;;;;5044012;28;20176;-77
2023/08/01 09:40:42;;;;;;;3.95;3.55;;;25.50;99.90;;;;;;5058306;28;20176;-76
2023/08/01 09:43:09;;;;;;;5.05;4.65;;;25.60;99.90;;;;;;5041191;28;20182;-78
2023/08/01 09:45:35;;;;;;;4.47;4.10;;;25.60;99.90;;;;;;5024322;28;20296;-76
2023/08/01 09:48:01;;;;;;;7.07;6.32;;;25.60;99.90;;;;;;5036259;28;20153;-78
2023/08/01 09:50:28;;;;;;;3.67;3.47;;;25.50;99.90;;;;;;5037071;28;20538;-77
2023/08/01 09:52:53;;;;;;;6.38;5.28;;;25.30;99.90;;;;;;5038053;28;20587;-76
2023/08/01 09:55:32;;;;;;;3.50;3.20;;;25.20;99.90;;;;;;5039402;28;20177;-78
2023/08/01 09:57:59;;;;;;;2.90;2.80;;;25.20;99.90;;;;;;5039121;28;20176;-77
2023/08/01 10:00:29;;;;;;;3.58;3.30;;;25.10;99.90;;;;;;5040396;28;20181;-78
2023/08/01 10:03:00;;;;;;;3.40;3.20;;;25.10;99.90;;;;;;5040619;28;20175;-77
2023/08/01 10:05:31;;;;;;;3.83;3.53;;;25.00;99.90;;;;;;5032371;28;20165;-76
2023/08/01 10:08:00;;;;;;;3.30;3.10;;;24.90;99.90;;;;;;5020366;28;20184;-79
2023/08/01 10:10:26;;;;;;;5.32;4.75;;;24.90;99.90;;;;;;5022213;28;20180;-76
2023/08/01 10:12:53;;;;;;;6.13;5.55;;;24.80;99.90;;;;;;5019825;28;20173;-75
2023/08/01 10:15:19;;;;;;;4.30;4.00;;;24.80;99.90;;;;;;5019756;28;20173;-75
2023/08/01 10:17:45;;;;;;;10.57;9.15;;;24.70;99.90;;;;;;5018521;28;20165;-75
2023/08/01 10:20:13;;;;;;;3.58;3.28;;;24.70;99.90;;;;;;5018606;28;20223;-76
2023/08/01 10:22:40;;;;;;;3.65;3.35;;;24.70;99.90;;;;;;5004204;28;20231;-76
2023/08/01 10:25:09;;;;;;;4.70;4.40;;;24.70;99.90;;;;;;5018162;28;20188;-76
2023/08/01 10:27:36;;;;;;;3.20;3.00;;;24.60;99.90;;;;;;5024326;28;20651;-76
2023/08/01 10:30:03;;;;;;;4.22;3.83;;;24.60;99.90;;;;;;5001412;28;20781;-77
2023/08/01 10:32:38;;;;;;;3.20;3.03;;;24.60;99.90;;;;;;5036690;28;20223;-78
2023/08/01 10:35:06;;;;;;;4.07;3.72;;;24.60;99.90;;;;;;5020545;28;20200;-76
2023/08/01 10:37:45;;;;;;;3.25;3.13;;;24.50;99.90;;;;;;5000948;28;20193;-76
2023/08/01 10:40:11;;;;;;;3.88;3.65;;;24.40;99.90;;;;;;5018775;28;20158;-75
2023/08/01 10:42:44;;;;;;;4.07;3.88;;;24.30;99.90;;;;;;5034160;28;20204;-76
2023/08/01 10:45:22;;;;;;;3.95;3.55;;;24.20;99.90;;;;;;5051875;28;20216;-77
2023/08/01 10:47:50;;;;;;;3.78;3.47;;;24.20;99.90;;;;;;5040486;28;20642;-75
2023/08/01 10:50:16;;;;;;;3.55;3.25;;;24.10;99.90;;;;;;5038509;28;20204;-76
2023/08/01 10:52:43;;;;;;;3.55;3.33;;;24.00;99.90;;;;;;5037442;28;20222;-76
2023/08/01 10:55:09;;;;;;;4.32;4.03;;;23.90;99.90;;;;;;5039086;28;20179;-75
2023/08/01 10:57:38;;;;;;;3.90;3.70;;;23.80;99.90;;;;;;5021401;28;20190;-75
2023/08/01 11:00:09;;;;;;;4.70;4.30;;;23.70;99.90;;;;;;5039932;28;20195;-76
2023/08/01 11:02:35;;;;;;;3.70;3.50;;;23.70;99.90;;;;;;5021773;28;20519;-75
2023/08/01 11:05:06;;;;;;;4.75;4.35;;;23.70;99.90;;;;;;5037828;28;20226;-76
2023/08/01 11:07:33;;;;;;;4.50;4.10;;;23.60;99.90;;;;;;5037426;28;20168;-75
2023/08/01 11:10:11;;;;;;;4.55;4.13;;;23.60;99.90;;;;;;5020878;28;20307;-76
2023/08/01 11:12:38;;;;;;;4.65;4.35;;;23.60;99.90;;;;;;5038790;28;20218;-77
2023/08/01 11:15:07;;;;;;;4.18;3.88;;;23.50;99.90;;;;;;5020227;28;20172;-76
2023/08/01 11:17:34;;;;;;;4.05;3.75;;;23.40;99.90;;;;;;5039573;28;20192;-76
2023/08/01 11:20:08;;;;;;;5.17;4.70;;;23.30;99.90;;;;;;5040221;28;20172;-75
2023/08/01 11:22:34;;;;;;;4.53;4.22;;;23.20;99.90;;;;;;5039333;28;20173;-77
2023/08/01 11:25:00;;;;;;;4.18;3.80;;;23.20;99.90;;;;;;5020102;28;20196;-76
2023/08/01 11:27:27;;;;;;;4.10;3.90;;;23.20;99.90;;;;;;5036645;28;20169;-75
2023/08/01 11:29:54;;;;;;;5.55;4.03;;;23.10;99.90;;;;;;5038512;28;20323;-77
2023/08/01 11:32:20;;;;;;;4.18;3.97;;;23.10;99.90;;;;;;5038429;28;20172;-75
2023/08/01 11:34:47;;;;;;;4.88;4.47;;;23.20;99.90;;;;;;5021922;28;20177;-75
2023/08/01 11:37:18;;;;;;;4.82;4.40;;;23.20;99.90;;;;;;5038654;28;20204;-76
2023/08/01 11:39:45;;;;;;;4.82;4.45;;;23.20;99.90;;;;;;5037527;28;20255;-75
2023/08/01 11:42:16;;;;;;;4.28;4.07;;;23.30;99.90;;;;;;5045711;28;20191;-77
2023/08/01 11:44:45;;;;;;;4.40;4.13;;;23.30;99.90;;;;;;5046011;28;20724;-75
2023/08/01 11:47:16;;;;;;;5.93;5.03;;;23.30;99.90;;;;;;5038439;28;20167;-75
2023/08/01 11:49:49;;;;;;;4.07;3.88;;;23.40;99.90;;;;;;5039290;28;20675;-76
2023/08/01 11:52:25;;;;;;;4.30;4.00;;;23.20;99.90;;;;;;5036413;28;20212;-76
2023/08/01 11:54:52;;;;;;;4.40;4.00;;;23.20;99.90;;;;;;5036809;28;20513;-76
2023/08/01 11:57:18;;;;;;;4.20;3.90;;;23.20;99.90;;;;;;5039308;28;20177;-77
2023/08/01 11:59:51;;;;;;;3.75;3.55;;;23.40;99.90;;;;;;5046073;28;20199;-78
2023/08/01 12:02:27;;;;;;;4.35;4.05;;;23.50;99.90;;;;;;5039997;28;20160;-76
2023/08/01 12:04:54;;;;;;;4.25;3.97;;;23.70;99.90;;;;;;5038181;28;20259;-75
2023/08/01 12:07:21;;;;;;;3.90;3.70;;;23.80;99.90;;;;;;5037389;28;20219;-77
2023/08/01 12:09:57;;;;;;;4.32;4.03;;;23.80;99.90;;;;;;5054308;28;20204;-78
2023/08/01 12:12:24;;;;;;;3.97;3.70;;;23.90;99.90;;;;;;5037543;28;20171;-76
2023/08/01 12:14:50;;;;;;;3.90;3.70;;;23.90;99.90;;;;;;5038456;28;20189;-76
2023/08/01 12:17:15;;;;;;;4.05;3.78;;;24.00;99.90;;;;;;5040764;28;20177;-76
2023/08/01 12:19:41;;;;;;;4.65;4.35;;;24.00;99.90;;;;;;5043357;28;20670;-76
2023/08/01 12:22:07;;;;;;;4.57;4.28;;;24.00;99.90;;;;;;5046791;28;20172;-76
2023/08/01 12:24:33;;;;;;;4.45;4.05;;;23.90;99.90;;;;;;5054217;28;20194;-75
2023/08/01 12:26:59;;;;;;;3.88;3.67;;;23.80;99.90;;;;;;5032247;28;20178;-76
2023/08/01 12:29:25;;;;;;;4.70;4.40;;;23.60;99.90;;;;;;5037480;28;20268;-76
2023/08/01 12:31:51;;;;;;;4.43;4.13;;;23.50;99.90;;;;;;5036043;28;20168;-76
2023/08/01 12:34:16;;;;;;;5.75;5.22;;;23.30;99.90;;;;;;5036756;28;20176;-76
2023/08/01 12:36:42;;;;;;;4.97;4.57;;;23.00;99.90;;;;;;5036193;28;20698;-76
2023/08/01 12:39:11;;;;;;;5.27;4.87;;;22.80;99.90;;;;;;5038036;28;20231;-76
2023/08/01 12:41:38;;;;;;;5.37;4.97;;;22.60;99.90;;;;;;5037551;28;20175;-77
2023/08/01 12:44:04;;;;;;;5.55;4.93;;;22.60;99.90;;;;;;5036883;28;20179;-76